createdAt,value
2023-03-16T00:01:12.390Z,-4.37
2023-03-16T00:03:41.272Z,-4.25
2023-03-16T00:06:10.366Z,-4.31
2023-03-16T00:08:43.804Z,-4.86
2023-03-16T00:11:13.050Z,-4.28
2023-03-16T00:13:43.490Z,-4.44
2023-03-16T00:16:17.606Z,-4.35
2023-03-16T00:18:46.624Z,-4.45
2023-03-16T00:21:16.283Z,-4.38
2023-03-16T00:23:45.068Z,-4.69
2023-03-16T00:26:14.220Z,-4.30
2023-03-16T00:28:43.500Z,-4.38
2023-03-16T00:31:15.480Z,-4.87
2023-03-16T00:33:43.990Z,-4.34
2023-03-16T00:36:13.325Z,-4.41
2023-03-16T00:38:46.478Z,-4.45
2023-03-16T00:41:16.682Z,-4.34
2023-03-16T00:43:49.598Z,-4.40
2023-03-16T00:46:18.897Z,-4.42
2023-03-16T00:48:48.558Z,-4.42
2023-03-16T00:51:19.669Z,-4.46
2023-03-16T00:53:51.757Z,-4.43
2023-03-16T00:56:20.502Z,-4.39
2023-03-16T00:58:49.719Z,-4.49
2023-03-16T01:01:20.335Z,-4.89
2023-03-16T01:03:49.984Z,-4.54
2023-03-16T01:06:21.424Z,-4.40
2023-03-16T01:08:49.963Z,-4.59
2023-03-16T01:11:21.180Z,-4.61
2023-03-16T01:13:54.943Z,-4.63
2023-03-16T01:16:26.663Z,-4.67
2023-03-16T01:18:56.104Z,-4.72
2023-03-16T01:21:24.897Z,-4.75
2023-03-16T01:23:54.639Z,-4.67
2023-03-16T01:26:25.997Z,-5.10
2023-03-16T01:28:55.760Z,-4.56
2023-03-16T01:31:27.585Z,-4.70
2023-03-16T01:33:56.636Z,-4.70
2023-03-16T01:36:28.557Z,-4.77
2023-03-16T01:39:07.498Z,-4.59
2023-03-16T01:41:40.417Z,-4.74
2023-03-16T01:44:19.197Z,-4.62
2023-03-16T01:46:48.388Z,-4.73
2023-03-16T01:49:29.584Z,-4.52
2023-03-16T01:52:07.827Z,-4.62
2023-03-16T01:54:43.266Z,-5.81
2023-03-16T01:57:23.641Z,-4.49
2023-03-16T02:00:19.760Z,-4.61
2023-03-16T02:03:20.840Z,-4.45
2023-03-16T02:06:03.895Z,-4.49
2023-03-16T02:08:35.975Z,-4.50
2023-03-16T02:11:06.465Z,-4.57
2023-03-16T02:13:44.269Z,-4.47
2023-03-16T02:16:20.053Z,-4.40
2023-03-16T02:18:52.499Z,-4.51
2023-03-16T02:21:26.279Z,-4.41
2023-03-16T02:23:55.756Z,-4.40
2023-03-16T02:26:48.806Z,-4.32
2023-03-16T02:30:03.459Z,-4.34
2023-03-16T02:32:41.874Z,-4.47
2023-03-16T02:35:11.623Z,-4.57
2023-03-16T02:37:42.598Z,-4.79
2023-03-16T02:40:18.114Z,-4.36
2023-03-16T02:43:15.697Z,-4.43
2023-03-16T02:45:58.356Z,-4.63
2023-03-16T02:48:39.023Z,-4.47
2023-03-16T02:51:08.217Z,-4.57
2023-03-16T02:53:37.022Z,-4.39
2023-03-16T02:56:06.247Z,-4.48
2023-03-16T02:58:37.436Z,-4.51
2023-03-16T03:01:12.217Z,-4.34
2023-03-16T03:03:41.135Z,-4.32
2023-03-16T03:06:09.895Z,-4.40
2023-03-16T03:08:39.356Z,-4.50
2023-03-16T03:11:08.116Z,-4.60
2023-03-16T03:13:40.018Z,-4.82
2023-03-16T03:16:15.383Z,-4.29
2023-03-16T03:18:44.459Z,-4.46
2023-03-16T03:21:16.305Z,-4.42
2023-03-16T03:23:47.362Z,-4.68
2023-03-16T03:26:16.535Z,-4.33
2023-03-16T03:28:47.001Z,-4.11
2023-03-16T03:31:18.339Z,-4.11
2023-03-16T03:33:47.416Z,-3.99
2023-03-16T03:36:16.399Z,-4.12
2023-03-16T03:38:46.537Z,-4.15
2023-03-16T03:41:15.893Z,-4.17
2023-03-16T03:43:46.169Z,-4.22
2023-03-16T03:46:18.443Z,-4.19
2023-03-16T03:48:47.421Z,-4.44
2023-03-16T03:51:16.479Z,-4.40
2023-03-16T03:53:58.237Z,-4.29
2023-03-16T03:56:45.520Z,-4.15
2023-03-16T03:59:17.545Z,-4.25
2023-03-16T04:02:07.681Z,-4.35
2023-03-16T04:04:45.544Z,-4.03
2023-03-16T04:07:15.727Z,-4.17
2023-03-16T04:09:46.040Z,-4.24
2023-03-16T04:12:27.244Z,-4.28
2023-03-16T04:14:56.204Z,-4.70
2023-03-16T04:17:26.637Z,-4.11
2023-03-16T04:19:59.087Z,-4.12
2023-03-16T04:22:27.705Z,-4.10
2023-03-16T04:24:57.222Z,-4.13
2023-03-16T04:27:28.461Z,-3.92
2023-03-16T04:30:00.381Z,-3.91
2023-03-16T04:32:30.090Z,-3.82
2023-03-16T04:34:59.353Z,-3.69
2023-03-16T04:37:40.109Z,-3.81
2023-03-16T04:40:20.189Z,-3.75
2023-03-16T04:42:55.222Z,-3.69
2023-03-16T04:45:25.206Z,-3.49
2023-03-16T04:47:57.245Z,-3.61
2023-03-16T04:50:26.458Z,-3.49
2023-03-16T04:52:56.427Z,-3.50
2023-03-16T04:55:26.183Z,-3.42
2023-03-16T04:57:55.321Z,-3.19
2023-03-16T05:00:24.869Z,-3.24
2023-03-16T05:03:11.440Z,-3.68
2023-03-16T05:05:41.200Z,-2.93
2023-03-16T05:08:11.572Z,-3.10
2023-03-16T05:10:43.423Z,-3.02
2023-03-16T05:13:12.545Z,-3.16
2023-03-16T05:15:41.297Z,-3.14
2023-03-16T05:18:24.162Z,-2.95
2023-03-16T05:20:55.207Z,-3.08
2023-03-16T05:23:25.601Z,-3.06
2023-03-16T05:26:03.481Z,-2.99
2023-03-16T05:28:35.004Z,-2.76
2023-03-16T05:31:07.666Z,-2.71
2023-03-16T05:33:41.113Z,-2.41
2023-03-16T05:36:13.960Z,-2.85
2023-03-16T05:38:48.407Z,-2.52
2023-03-16T05:41:43.506Z,-2.51
2023-03-16T05:44:24.244Z,-2.22
2023-03-16T05:47:03.640Z,-2.29
2023-03-16T05:49:34.575Z,-2.25
2023-03-16T05:52:07.145Z,-2.43
2023-03-16T05:54:37.165Z,-2.61
2023-03-16T05:57:07.825Z,-2.21
2023-03-16T05:59:37.862Z,-2.24
2023-03-16T06:02:07.027Z,-2.23
2023-03-16T06:04:38.207Z,-2.13
2023-03-16T06:07:07.265Z,-2.22
2023-03-16T06:09:36.644Z,-2.01
2023-03-16T06:12:11.844Z,-1.77
2023-03-16T06:14:41.889Z,-2.16
2023-03-16T06:17:11.561Z,-1.59
2023-03-16T06:19:42.430Z,-1.29
2023-03-16T06:22:11.734Z,-0.92
2023-03-16T06:24:41.126Z,-1.19
2023-03-16T06:27:10.005Z,-1.18
2023-03-16T06:29:52.247Z,-1.19
2023-03-16T06:32:24.150Z,-1.19
2023-03-16T06:34:53.318Z,-1.25
2023-03-16T06:37:22.526Z,-1.07
2023-03-16T06:39:51.389Z,-1.73
2023-03-16T06:42:20.272Z,-1.41
2023-03-16T06:44:49.280Z,-1.72
2023-03-16T06:47:18.490Z,-1.44
2023-03-16T06:49:47.867Z,-1.74
2023-03-16T06:52:21.766Z,-1.16
2023-03-16T06:54:51.707Z,-0.89
2023-03-16T06:57:22.095Z,-1.05
2023-03-16T06:59:51.829Z,-1.32
2023-03-16T07:02:20.829Z,-0.97
2023-03-16T07:04:49.896Z,-1.06
2023-03-16T07:07:19.985Z,-1.23
2023-03-16T07:09:48.853Z,-1.29
2023-03-16T07:12:17.625Z,-1.38
2023-03-16T07:14:49.731Z,-0.97
2023-03-16T07:17:22.885Z,-0.86
2023-03-16T07:19:52.085Z,-0.60
2023-03-16T07:22:20.983Z,-0.23
2023-03-16T07:24:56.745Z,-0.06
2023-03-16T07:27:26.902Z,-0.13
2023-03-16T07:29:55.844Z,-0.25
2023-03-16T07:32:24.809Z,-0.43
2023-03-16T07:34:58.149Z,-0.32
2023-03-16T07:37:31.967Z,-0.36
2023-03-16T07:40:02.656Z,-0.96
2023-03-16T07:42:31.454Z,-0.67
2023-03-16T07:45:18.586Z,-0.81
2023-03-16T07:47:48.327Z,-1.00
2023-03-16T07:50:37.269Z,-0.82
2023-03-16T07:53:06.175Z,-1.23
2023-03-16T07:55:39.850Z,-1.09
2023-03-16T07:58:11.379Z,-1.16
2023-03-16T08:00:43.364Z,-0.85
2023-03-16T08:03:12.543Z,-1.01
2023-03-16T08:05:41.546Z,-0.78
2023-03-16T08:08:19.502Z,-0.63
2023-03-16T08:10:55.011Z,-0.68
2023-03-16T08:13:31.028Z,-0.73
2023-03-16T08:16:02.739Z,-0.47
2023-03-16T08:18:37.680Z,-0.18
2023-03-16T08:21:07.563Z,-0.19
2023-03-16T08:23:36.865Z,-0.43
2023-03-16T08:26:09.730Z,-0.39
2023-03-16T08:28:39.910Z,-0.20
2023-03-16T08:31:13.030Z,0.11
2023-03-16T08:33:48.560Z,0.29
2023-03-16T08:36:22.968Z,0.25
2023-03-16T08:39:06.589Z,0.28
2023-03-16T08:41:46.684Z,0.27
2023-03-16T08:44:26.769Z,0.17
2023-03-16T08:46:56.118Z,-0.16
2023-03-16T08:49:25.810Z,-0.24
2023-03-16T08:52:03.048Z,-0.54
2023-03-16T08:54:33.071Z,-0.74
2023-03-16T08:57:02.139Z,-0.52
2023-03-16T08:59:34.024Z,-0.34
2023-03-16T09:02:05.130Z,-0.38
2023-03-16T09:04:34.071Z,-0.68
2023-03-16T09:07:09.345Z,-0.78
2023-03-16T09:09:39.023Z,-1.13
2023-03-16T09:12:09.488Z,-1.02
2023-03-16T09:14:39.314Z,-0.97
2023-03-16T09:17:08.662Z,-0.91
2023-03-16T09:19:56.274Z,-1.18
2023-03-16T09:22:26.594Z,-1.20
2023-03-16T09:24:55.490Z,-1.39
2023-03-16T09:27:24.579Z,-1.39
2023-03-16T09:29:56.637Z,-1.77
2023-03-16T09:32:25.581Z,-1.56
2023-03-16T09:34:55.205Z,-1.76
2023-03-16T09:37:24.282Z,-1.77
2023-03-16T09:39:57.933Z,-1.65
2023-03-16T09:42:38.866Z,-1.59
2023-03-16T09:45:16.079Z,-1.37
2023-03-16T09:47:49.245Z,-1.37
2023-03-16T09:50:30.279Z,-1.38
2023-03-16T09:53:32.238Z,-1.29
2023-03-16T09:56:16.960Z,-1.31
2023-03-16T09:58:46.536Z,-1.37
2023-03-16T10:01:45.534Z,-1.28
2023-03-16T10:04:43.794Z,-1.24
2023-03-16T10:07:53.013Z,-1.11
2023-03-16T10:10:39.150Z,-1.20
2023-03-16T10:13:24.698Z,-1.01
2023-03-16T10:15:57.434Z,-1.17
2023-03-16T10:18:33.291Z,-1.16
2023-03-16T10:21:03.644Z,-1.55
2023-03-16T10:23:36.114Z,-1.68
2023-03-16T10:26:15.433Z,-1.73
2023-03-16T10:28:46.342Z,-1.55
2023-03-16T10:31:17.728Z,-1.69
2023-03-16T10:33:47.090Z,-1.73
2023-03-16T10:36:26.822Z,-1.73
2023-03-16T10:39:00.491Z,-1.59
2023-03-16T10:41:34.696Z,-1.45
2023-03-16T10:44:27.656Z,-1.56
2023-03-16T10:47:08.932Z,-1.69
2023-03-16T10:49:42.819Z,-1.61
2023-03-16T10:52:27.002Z,-1.71
2023-03-16T10:55:02.053Z,-1.77
2023-03-16T10:57:34.735Z,-1.69
2023-03-16T11:00:13.807Z,-1.68
2023-03-16T11:02:43.125Z,-1.42
2023-03-16T11:05:31.898Z,-1.35
2023-03-16T11:08:14.497Z,-1.37
2023-03-16T11:10:56.340Z,-1.94
2023-03-16T11:13:38.360Z,-1.49
2023-03-16T11:16:46.139Z,-1.50
2023-03-16T11:19:58.481Z,-1.65
2023-03-16T11:22:28.461Z,-1.79
2023-03-16T11:24:57.017Z,-1.78
2023-03-16T11:28:07.346Z,-2.26
2023-03-16T11:31:04.742Z,-1.91
2023-03-16T11:33:35.718Z,-1.95
2023-03-16T11:36:28.404Z,-1.78
2023-03-16T11:39:41.299Z,-1.99
2023-03-16T11:42:16.518Z,-1.96
2023-03-16T11:45:02.224Z,-2.07
2023-03-16T11:47:37.427Z,-2.07
2023-03-16T11:50:20.764Z,-2.14
2023-03-16T11:53:01.484Z,-2.13
2023-03-16T11:55:37.850Z,-2.15
2023-03-16T11:58:58.836Z,-2.29
2023-03-16T12:01:58.149Z,-2.51
2023-03-16T12:04:47.357Z,-2.35
2023-03-16T12:07:26.915Z,-2.34
2023-03-16T12:10:24.818Z,-2.34
2023-03-16T12:13:11.892Z,-2.41
2023-03-16T12:15:48.941Z,-2.35
2023-03-16T12:18:40.174Z,-2.64
2023-03-16T12:21:19.412Z,-2.52
2023-03-16T12:23:56.095Z,-2.52
2023-03-16T12:26:30.880Z,-2.64
2023-03-16T12:29:01.323Z,-2.83
2023-03-16T12:32:15.989Z,-2.98
2023-03-16T12:35:08.621Z,-3.06
2023-03-16T12:37:46.316Z,-2.97
2023-03-16T12:40:45.365Z,-3.10
2023-03-16T12:43:40.112Z,-3.24
2023-03-16T12:46:15.230Z,-3.09
2023-03-16T12:48:51.297Z,-3.00
2023-03-16T12:51:20.042Z,-2.92
2023-03-16T12:53:52.472Z,-2.85
2023-03-16T12:56:30.919Z,-2.92
2023-03-16T12:59:06.924Z,-3.03
2023-03-16T13:01:43.314Z,-2.94
2023-03-16T13:04:24.292Z,-2.90
2023-03-16T13:07:19.935Z,-3.00
2023-03-16T13:09:52.915Z,-3.05
2023-03-16T13:12:33.343Z,-3.19
2023-03-16T13:15:02.860Z,-3.28
2023-03-16T13:17:33.949Z,-3.08
2023-03-16T13:20:08.944Z,-3.20
2023-03-16T13:22:48.559Z,-3.32
2023-03-16T13:25:23.647Z,-3.00
2023-03-16T13:27:56.816Z,-2.99
2023-03-16T13:30:47.922Z,-2.98
2023-03-16T13:33:29.563Z,-3.15
2023-03-16T13:36:00.838Z,-3.10
2023-03-16T13:38:30.282Z,-3.25
2023-03-16T13:41:04.710Z,-3.32
2023-03-16T13:43:36.542Z,-3.25
2023-03-16T13:46:19.599Z,-3.21
2023-03-16T13:48:49.789Z,-3.26
2023-03-16T13:51:21.805Z,-3.11
2023-03-16T13:53:51.914Z,-3.31
2023-03-16T13:56:27.700Z,-3.24
2023-03-16T13:58:59.484Z,-3.07
2023-03-16T14:01:32.951Z,-3.04
2023-03-16T14:04:09.401Z,-3.12
2023-03-16T14:06:39.361Z,-3.12
2023-03-16T14:09:18.682Z,-3.07
2023-03-16T14:11:49.403Z,-3.15
2023-03-16T14:14:26.941Z,-3.24
2023-03-16T14:17:03.695Z,-3.31
2023-03-16T14:19:43.037Z,-3.22
2023-03-16T14:22:19.010Z,-3.31
2023-03-16T14:24:55.532Z,-3.72
2023-03-16T14:27:44.996Z,-3.37
2023-03-16T14:30:26.846Z,-3.38
2023-03-16T14:33:03.068Z,-3.17
2023-03-16T14:35:43.550Z,-3.72
2023-03-16T14:38:36.898Z,-3.19
2023-03-16T14:41:10.403Z,-3.14
2023-03-16T14:43:48.459Z,-3.29
2023-03-16T14:46:28.620Z,-3.43
2023-03-16T14:49:17.776Z,-3.31
2023-03-16T14:51:49.396Z,-3.44
2023-03-16T14:54:22.568Z,-3.26
2023-03-16T14:56:54.230Z,-3.23
2023-03-16T14:59:23.196Z,-3.48
2023-03-16T15:01:55.428Z,-3.79
2023-03-16T15:04:36.190Z,-3.73
2023-03-16T15:07:35.316Z,-3.40
2023-03-16T15:10:11.355Z,-3.41
2023-03-16T15:12:41.720Z,-3.23
2023-03-16T15:15:19.713Z,-3.24
2023-03-16T15:17:51.203Z,-3.18
2023-03-16T15:20:26.234Z,-3.37
2023-03-16T15:22:55.233Z,-3.32
2023-03-16T15:25:42.652Z,-3.20
2023-03-16T15:28:19.472Z,-3.15
2023-03-16T15:31:04.768Z,-3.37
2023-03-16T15:33:35.490Z,-3.22
2023-03-16T15:36:15.496Z,-3.29
2023-03-16T15:38:49.590Z,-3.33
2023-03-16T15:41:22.050Z,-3.28
2023-03-16T15:43:53.170Z,-3.35
2023-03-16T15:46:25.152Z,-3.27
2023-03-16T15:48:54.459Z,-3.40
2023-03-16T15:51:31.027Z,-3.28
2023-03-16T15:54:06.061Z,-3.50
2023-03-16T15:56:50.971Z,-3.74
2023-03-16T15:59:22.860Z,-3.35
2023-03-16T16:01:53.165Z,-3.32
2023-03-16T16:04:25.822Z,-3.23
2023-03-16T16:06:56.032Z,-3.24
2023-03-16T16:09:26.269Z,-3.55
2023-03-16T16:11:54.956Z,-3.47
2023-03-16T16:14:27.349Z,-3.39
2023-03-16T16:16:56.373Z,-3.53
2023-03-16T16:19:29.198Z,-3.53
2023-03-16T16:21:57.912Z,-3.41
2023-03-16T16:24:27.212Z,-3.35
2023-03-16T16:26:56.284Z,-3.50
2023-03-16T16:29:30.704Z,-3.37
2023-03-16T16:31:59.991Z,-3.28
2023-03-16T16:34:29.325Z,-3.28
2023-03-16T16:36:58.858Z,-3.43
2023-03-16T16:39:28.072Z,-3.44
2023-03-16T16:41:57.500Z,-3.42
2023-03-16T16:44:34.426Z,-3.45
2023-03-16T16:47:04.713Z,-3.53
2023-03-16T16:49:35.489Z,-3.41
2023-03-16T16:52:04.787Z,-3.31
2023-03-16T16:54:33.610Z,-3.42
2023-03-16T16:57:09.410Z,-3.25
2023-03-16T16:59:39.048Z,-3.45
2023-03-16T17:02:30.502Z,-3.79
2023-03-16T17:04:59.365Z,-3.42
2023-03-16T17:07:28.613Z,-3.43
2023-03-16T17:09:57.244Z,-3.58
2023-03-16T17:12:26.546Z,-3.51
2023-03-16T17:14:58.007Z,-3.32
2023-03-16T17:17:29.898Z,-3.37
2023-03-16T17:19:59.084Z,-3.51
2023-03-16T17:22:29.146Z,-3.55
2023-03-16T17:24:59.282Z,-3.30
2023-03-16T17:27:32.923Z,-3.44
2023-03-16T17:30:02.623Z,-3.41
2023-03-16T17:32:31.718Z,-3.44
2023-03-16T17:35:00.594Z,-3.38
2023-03-16T17:37:29.493Z,-3.39
2023-03-16T17:39:58.696Z,-3.56
2023-03-16T17:42:27.812Z,-3.46
2023-03-16T17:44:57.235Z,-3.41
2023-03-16T17:47:28.374Z,-3.88
2023-03-16T17:49:57.744Z,-3.48
2023-03-16T17:52:30.360Z,-3.35
2023-03-16T17:54:59.520Z,-3.90
2023-03-16T17:57:32.719Z,-3.62
2023-03-16T18:00:03.302Z,-3.46
2023-03-16T18:02:55.917Z,-3.67
2023-03-16T18:05:31.066Z,-3.34
2023-03-16T18:08:07.896Z,-3.44
2023-03-16T18:10:38.438Z,-3.54
2023-03-16T18:13:15.137Z,-3.55
2023-03-16T18:15:45.967Z,-3.51
2023-03-16T18:18:21.306Z,-3.54
2023-03-16T18:20:51.602Z,-3.41
2023-03-16T18:23:23.264Z,-3.44
2023-03-16T18:25:55.639Z,-3.52
2023-03-16T18:28:24.411Z,-3.38
2023-03-16T18:30:54.385Z,-3.52
2023-03-16T18:33:35.285Z,-3.38
2023-03-16T18:36:14.046Z,-3.51
2023-03-16T18:38:46.414Z,-3.40
2023-03-16T18:41:26.215Z,-3.51
2023-03-16T18:43:59.279Z,-3.53
2023-03-16T18:46:32.560Z,-3.40
2023-03-16T18:49:05.719Z,-3.44
2023-03-16T18:51:34.514Z,-3.42
2023-03-16T18:54:03.357Z,-3.60
2023-03-16T18:56:32.493Z,-3.57
2023-03-16T18:59:01.254Z,-3.61
2023-03-16T19:01:32.505Z,-3.60
2023-03-16T19:04:03.035Z,-3.79
2023-03-16T19:06:36.088Z,-3.49
2023-03-16T19:09:14.126Z,-3.52
2023-03-16T19:11:44.988Z,-3.65
2023-03-16T19:14:19.599Z,-3.80
2023-03-16T19:16:48.301Z,-3.62
2023-03-16T19:19:17.707Z,-3.65
2023-03-16T19:21:46.589Z,-3.63
2023-03-16T19:24:49.866Z,-3.61
2023-03-16T19:27:24.866Z,-3.58
2023-03-16T19:29:55.785Z,-3.68
2023-03-16T19:32:24.741Z,-3.63
2023-03-16T19:34:53.873Z,-3.80
2023-03-16T19:37:24.624Z,-3.83
2023-03-16T19:39:53.572Z,-4.12
2023-03-16T19:42:29.217Z,-4.27
2023-03-16T19:44:58.074Z,-4.78
2023-03-16T19:47:32.872Z,-4.47
2023-03-16T19:50:02.614Z,-4.67
2023-03-16T19:52:33.351Z,-5.22
2023-03-16T19:55:05.031Z,-4.97
2023-03-16T19:57:34.650Z,-5.10
2023-03-16T20:00:04.452Z,-5.21
2023-03-16T20:02:37.852Z,-5.16
2023-03-16T20:05:07.653Z,-5.37
2023-03-16T20:07:38.875Z,-5.53
2023-03-16T20:10:08.525Z,-5.67
2023-03-16T20:12:39.456Z,-5.90
2023-03-16T20:15:15.494Z,-6.44
2023-03-16T20:17:45.129Z,-6.21
2023-03-16T20:20:35.056Z,-6.23
2023-03-16T20:23:04.095Z,-6.44
2023-03-16T20:25:35.471Z,-7.00
2023-03-16T20:28:04.649Z,-6.73
2023-03-16T20:30:36.530Z,-6.87
2023-03-16T20:33:05.681Z,-6.93
2023-03-16T20:35:35.006Z,-7.36
2023-03-16T20:38:03.668Z,-6.87
2023-03-16T20:40:32.588Z,-7.10
2023-03-16T20:43:01.768Z,-7.14
2023-03-16T20:45:31.176Z,-7.21
2023-03-16T20:47:59.988Z,-7.29
2023-03-16T20:50:31.290Z,-7.41
2023-03-16T20:53:00.045Z,-7.22
2023-03-16T20:55:29.811Z,-7.37
2023-03-16T20:57:59.268Z,-7.50
2023-03-16T21:00:36.015Z,-7.35
2023-03-16T21:03:19.769Z,-7.72
2023-03-16T21:05:49.320Z,-7.65
2023-03-16T21:08:18.868Z,-7.69
2023-03-16T21:10:50.167Z,-7.65
2023-03-16T21:13:34.535Z,-7.87
2023-03-16T21:16:05.121Z,-7.93
2023-03-16T21:18:33.858Z,-7.90
2023-03-16T21:21:03.809Z,-8.05
2023-03-16T21:23:32.593Z,-8.37
2023-03-16T21:26:04.387Z,-7.99
2023-03-16T21:28:35.334Z,-8.06
2023-03-16T21:31:06.172Z,-8.04
2023-03-16T21:33:39.940Z,-7.96
2023-03-16T21:36:15.965Z,-8.12
2023-03-16T21:38:45.748Z,-8.09
2023-03-16T21:41:15.571Z,-8.24
2023-03-16T21:43:45.636Z,-8.40
2023-03-16T21:46:17.178Z,-8.24
2023-03-16T21:48:50.250Z,-8.38
2023-03-16T21:51:30.993Z,-8.37
2023-03-16T21:53:59.930Z,-8.26
2023-03-16T21:56:29.647Z,-8.41
2023-03-16T21:58:58.511Z,-8.66
2023-03-16T22:01:32.933Z,-8.55
2023-03-16T22:04:09.510Z,-8.78
2023-03-16T22:06:38.985Z,-8.70
2023-03-16T22:09:08.210Z,-8.99
2023-03-16T22:11:36.972Z,-8.81
2023-03-16T22:14:05.825Z,-8.76
2023-03-16T22:16:37.244Z,-8.88
2023-03-16T22:19:07.171Z,-8.91
2023-03-16T22:21:41.514Z,-9.04
2023-03-16T22:24:29.077Z,-9.17
2023-03-16T22:26:58.844Z,-9.18
2023-03-16T22:29:34.163Z,-9.28
2023-03-16T22:32:08.153Z,-9.44
2023-03-16T22:34:56.668Z,-9.29
2023-03-16T22:37:27.972Z,-9.35
2023-03-16T22:39:59.287Z,-9.63
2023-03-16T22:42:39.174Z,-9.55
2023-03-16T22:45:22.230Z,-9.78
2023-03-16T22:47:51.098Z,-9.88
2023-03-16T22:50:22.688Z,-10.04
2023-03-16T22:52:56.689Z,-10.09
2023-03-16T22:55:33.495Z,-10.06
2023-03-16T22:58:35.969Z,-10.13
2023-03-16T23:01:28.862Z,-10.32
2023-03-16T23:03:57.630Z,-10.14
2023-03-16T23:06:30.870Z,-10.13
2023-03-16T23:09:00.012Z,-10.31
2023-03-16T23:11:37.306Z,-10.71
2023-03-16T23:14:15.717Z,-10.20
2023-03-16T23:16:45.601Z,-10.11
2023-03-16T23:19:32.657Z,-10.52
2023-03-16T23:22:04.152Z,-10.07
2023-03-16T23:24:34.516Z,-9.90
2023-03-16T23:27:15.558Z,-9.95
2023-03-16T23:29:44.863Z,-9.86
2023-03-16T23:32:14.114Z,-9.65
2023-03-16T23:34:42.860Z,-9.90
2023-03-16T23:37:12.111Z,-9.68
2023-03-16T23:39:40.812Z,-9.79
2023-03-16T23:42:10.074Z,-10.49
2023-03-16T23:44:38.815Z,-9.85
2023-03-16T23:47:07.879Z,-9.98
2023-03-16T23:49:43.372Z,-9.80
2023-03-16T23:52:14.192Z,-9.90
2023-03-16T23:54:44.111Z,-9.72
2023-03-16T23:57:12.940Z,-9.68
2023-03-16T23:59:42.020Z,-9.65
